Inicio METAR Ruta Wind Satelite

Informe Meteorológico

Fecha: 2021/09/21 16:26:58 Local
2021.09.21 21:26 UTC


Operación:
SKEJ 212100Z 03003KT 9999 FEW020 31/23 Q1006 RMK A2973 =